sensor_id;sensor_type;location;lat;lon;timestamp;temperature;humidity
20057;DHT22;10189;49.546;7.906;2023-04-01T00:01:20;7.90;92.10
20057;DHT22;10189;49.546;7.906;2023-04-01T00:03:46;7.90;91.40
20057;DHT22;10189;49.546;7.906;2023-04-01T00:06:16;8.00;90.90
20057;DHT22;10189;49.546;7.906;2023-04-01T00:08:44;7.90;91.30
20057;DHT22;10189;49.546;7.906;2023-04-01T00:11:11;7.90;91.20
20057;DHT22;10189;49.546;7.906;2023-04-01T00:13:38;7.90;91.60
20057;DHT22;10189;49.546;7.906;2023-04-01T00:16:04;8.00;91.10
20057;DHT22;10189;49.546;7.906;2023-04-01T00:18:30;8.00;91.10
20057;DHT22;10189;49.546;7.906;2023-04-01T00:20:57;7.90;91.40
20057;DHT22;10189;49.546;7.906;2023-04-01T00:23:23;8.00;91.20
20057;DHT22;10189;49.546;7.906;2023-04-01T00:25:49;7.90;91.20
20057;DHT22;10189;49.546;7.906;2023-04-01T00:28:17;7.90;91.10
20057;DHT22;10189;49.546;7.906;2023-04-01T00:30:44;7.90;91.40
20057;DHT22;10189;49.546;7.906;2023-04-01T00:33:11;7.90;91.20
20057;DHT22;10189;49.546;7.906;2023-04-01T00:35:37;7.90;91.10
20057;DHT22;10189;49.546;7.906;2023-04-01T00:38:04;7.90;91.30
20057;DHT22;10189;49.546;7.906;2023-04-01T00:40:35;7.90;91.60
20057;DHT22;10189;49.546;7.906;2023-04-01T00:43:15;7.90;91.40
20057;DHT22;10189;49.546;7.906;2023-04-01T00:45:47;7.90;92.00
20057;DHT22;10189;49.546;7.906;2023-04-01T00:50:54;7.90;92.00
20057;DHT22;10189;49.546;7.906;2023-04-01T00:53:30;7.90;91.30
20057;DHT22;10189;49.546;7.906;2023-04-01T00:56:06;7.90;91.30
20057;DHT22;10189;49.546;7.906;2023-04-01T00:58:41;7.80;91.40
20057;DHT22;10189;49.546;7.906;2023-04-01T01:01:12;7.90;91.10
20057;DHT22;10189;49.546;7.906;2023-04-01T01:03:38;7.90;90.90
20057;DHT22;10189;49.546;7.906;2023-04-01T01:12:16;7.90;91.80
20057;DHT22;10189;49.546;7.906;2023-04-01T01:15:26;7.80;92.10
20057;DHT22;10189;49.546;7.906;2023-04-01T01:24:39;7.70;94.60
20057;DHT22;10189;49.546;7.906;2023-04-01T01:27:17;7.70;94.90
20057;DHT22;10189;49.546;7.906;2023-04-01T01:30:17;7.70;95.30
20057;DHT22;10189;49.546;7.906;2023-04-01T01:32:53;7.60;96.10
20057;DHT22;10189;49.546;7.906;2023-04-01T01:35:46;7.60;96.40
20057;DHT22;10189;49.546;7.906;2023-04-01T01:38:23;7.60;95.70
20057;DHT22;10189;49.546;7.906;2023-04-01T01:41:02;7.60;96.00
20057;DHT22;10189;49.546;7.906;2023-04-01T01:43:38;7.60;95.60
20057;DHT22;10189;49.546;7.906;2023-04-01T01:46:12;7.60;96.80
20057;DHT22;10189;49.546;7.906;2023-04-01T01:48:44;7.50;97.30
20057;DHT22;10189;49.546;7.906;2023-04-01T01:51:12;7.50;97.40
20057;DHT22;10189;49.546;7.906;2023-04-01T01:53:39;7.40;97.90
20057;DHT22;10189;49.546;7.906;2023-04-01T01:56:06;7.40;98.50
20057;DHT22;10189;49.546;7.906;2023-04-01T01:58:49;7.40;98.00
20057;DHT22;10189;49.546;7.906;2023-04-01T02:01:26;7.40;97.70
20057;DHT22;10189;49.546;7.906;2023-04-01T02:03:59;7.40;97.20
20057;DHT22;10189;49.546;7.906;2023-04-01T02:06:30;7.40;97.70
20057;DHT22;10189;49.546;7.906;2023-04-01T02:09:04;7.40;98.00
20057;DHT22;10189;49.546;7.906;2023-04-01T02:14:14;7.40;97.70
20057;DHT22;10189;49.546;7.906;2023-04-01T02:17:11;7.40;97.30
20057;DHT22;10189;49.546;7.906;2023-04-01T02:20:05;7.40;97.20
20057;DHT22;10189;49.546;7.906;2023-04-01T02:22:43;7.40;97.30
20057;DHT22;10189;49.546;7.906;2023-04-01T02:25:33;7.40;97.80
20057;DHT22;10189;49.546;7.906;2023-04-01T02:28:04;7.50;98.10
20057;DHT22;10189;49.546;7.906;2023-04-01T02:30:35;7.50;97.80
20057;DHT22;10189;49.546;7.906;2023-04-01T02:33:05;7.50;97.50
20057;DHT22;10189;49.546;7.906;2023-04-01T02:35:34;7.50;98.30
20057;DHT22;10189;49.546;7.906;2023-04-01T02:38:02;7.40;98.90
20057;DHT22;10189;49.546;7.906;2023-04-01T02:40:29;7.40;99.40
20057;DHT22;10189;49.546;7.906;2023-04-01T02:42:55;7.30;99.90
20057;DHT22;10189;49.546;7.906;2023-04-01T02:45:21;7.40;99.70
20057;DHT22;10189;49.546;7.906;2023-04-01T02:47:48;7.40;99.70
20057;DHT22;10189;49.546;7.906;2023-04-01T02:50:14;7.30;99.70
20057;DHT22;10189;49.546;7.906;2023-04-01T02:52:40;7.30;99.80
20057;DHT22;10189;49.546;7.906;2023-04-01T02:55:06;7.30;99.90
20057;DHT22;10189;49.546;7.906;2023-04-01T02:57:33;7.30;99.90
20057;DHT22;10189;49.546;7.906;2023-04-01T03:00:00;7.30;99.90
20057;DHT22;10189;49.546;7.906;2023-04-01T03:02:26;7.30;99.90
20057;DHT22;10189;49.546;7.906;2023-04-01T03:04:52;7.30;99.90
20057;DHT22;10189;49.546;7.906;2023-04-01T03:07:18;7.30;99.90
20057;DHT22;10189;49.546;7.906;2023-04-01T03:09:44;7.30;99.90
20057;DHT22;10189;49.546;7.906;2023-04-01T03:12:10;7.30;99.90
20057;DHT22;10189;49.546;7.906;2023-04-01T03:14:46;7.30;99.90
20057;DHT22;10189;49.546;7.906;2023-04-01T03:17:12;7.30;99.80
20057;DHT22;10189;49.546;7.906;2023-04-01T03:19:38;7.30;99.90
20057;DHT22;10189;49.546;7.906;2023-04-01T03:22:10;7.30;99.90
20057;DHT22;10189;49.546;7.906;2023-04-01T03:24:37;7.30;99.90
20057;DHT22;10189;49.546;7.906;2023-04-01T03:27:03;7.30;99.70
20057;DHT22;10189;49.546;7.906;2023-04-01T03:29:29;7.30;99.60
20057;DHT22;10189;49.546;7.906;2023-04-01T03:31:56;7.30;99.40
20057;DHT22;10189;49.546;7.906;2023-04-01T03:34:25;7.30;99.60
20057;DHT22;10189;49.546;7.906;2023-04-01T03:36:52;7.30;98.80
20057;DHT22;10189;49.546;7.906;2023-04-01T03:39:18;7.40;98.50
20057;DHT22;10189;49.546;7.906;2023-04-01T03:41:46;7.40;98.20
20057;DHT22;10189;49.546;7.906;2023-04-01T03:44:12;7.40;97.90
20057;DHT22;10189;49.546;7.906;2023-04-01T03:46:39;7.40;97.90
20057;DHT22;10189;49.546;7.906;2023-04-01T03:49:09;7.40;98.30
20057;DHT22;10189;49.546;7.906;2023-04-01T03:51:40;7.40;98.50
20057;DHT22;10189;49.546;7.906;2023-04-01T03:54:08;7.40;98.60
20057;DHT22;10189;49.546;7.906;2023-04-01T03:56:36;7.40;98.70
20057;DHT22;10189;49.546;7.906;2023-04-01T03:59:04;7.40;98.70
20057;DHT22;10189;49.546;7.906;2023-04-01T04:01:34;7.30;99.30
20057;DHT22;10189;49.546;7.906;2023-04-01T04:04:00;7.30;99.20
20057;DHT22;10189;49.546;7.906;2023-04-01T04:06:27;7.40;99.10
20057;DHT22;10189;49.546;7.906;2023-04-01T04:08:53;7.30;99.80
20057;DHT22;10189;49.546;7.906;2023-04-01T04:11:20;7.30;99.90
20057;DHT22;10189;49.546;7.906;2023-04-01T04:13:48;7.20;99.90
20057;DHT22;10189;49.546;7.906;2023-04-01T04:16:16;7.20;99.90
20057;DHT22;10189;49.546;7.906;2023-04-01T04:18:46;7.20;99.90
20057;DHT22;10189;49.546;7.906;2023-04-01T04:21:14;7.10;99.90
20057;DHT22;10189;49.546;7.906;2023-04-01T04:23:42;7.10;99.90
20057;DHT22;10189;49.546;7.906;2023-04-01T04:26:11;7.10;99.90
20057;DHT22;10189;49.546;7.906;2023-04-01T04:28:39;7.10;99.90
20057;DHT22;10189;49.546;7.906;2023-04-01T04:31:06;7.00;99.90
20057;DHT22;10189;49.546;7.906;2023-04-01T04:33:34;7.00;99.90
20057;DHT22;10189;49.546;7.906;2023-04-01T04:36:03;7.00;99.90
20057;DHT22;10189;49.546;7.906;2023-04-01T04:38:29;6.90;99.90
20057;DHT22;10189;49.546;7.906;2023-04-01T04:40:55;6.90;99.90
20057;DHT22;10189;49.546;7.906;2023-04-01T04:43:21;6.90;99.90
20057;DHT22;10189;49.546;7.906;2023-04-01T04:45:47;6.90;99.90
20057;DHT22;10189;49.546;7.906;2023-04-01T04:48:16;6.90;99.90
20057;DHT22;10189;49.546;7.906;2023-04-01T04:50:46;6.90;99.90
20057;DHT22;10189;49.546;7.906;2023-04-01T04:53:15;6.90;99.90
20057;DHT22;10189;49.546;7.906;2023-04-01T04:55:46;6.80;99.90
20057;DHT22;10189;49.546;7.906;2023-04-01T04:58:21;6.80;99.90
20057;DHT22;10189;49.546;7.906;2023-04-01T05:00:47;6.80;99.90
20057;DHT22;10189;49.546;7.906;2023-04-01T05:03:21;6.80;99.90
20057;DHT22;10189;49.546;7.906;2023-04-01T05:05:52;6.80;99.90
20057;DHT22;10189;49.546;7.906;2023-04-01T05:08:19;6.80;99.90
20057;DHT22;10189;49.546;7.906;2023-04-01T05:10:46;6.80;99.90
20057;DHT22;10189;49.546;7.906;2023-04-01T05:13:12;6.80;99.90
20057;DHT22;10189;49.546;7.906;2023-04-01T05:15:39;6.90;99.90
20057;DHT22;10189;49.546;7.906;2023-04-01T05:18:05;6.80;99.90
20057;DHT22;10189;49.546;7.906;2023-04-01T05:20:31;6.80;99.90
20057;DHT22;10189;49.546;7.906;2023-04-01T05:22:57;6.80;99.90
20057;DHT22;10189;49.546;7.906;2023-04-01T05:25:24;6.80;99.90
20057;DHT22;10189;49.546;7.906;2023-04-01T05:27:50;6.90;99.90
20057;DHT22;10189;49.546;7.906;2023-04-01T05:30:16;6.90;99.90
20057;DHT22;10189;49.546;7.906;2023-04-01T05:32:56;6.90;99.90
20057;DHT22;10189;49.546;7.906;2023-04-01T05:35:23;6.90;99.90
20057;DHT22;10189;49.546;7.906;2023-04-01T05:37:49;6.90;99.90
20057;DHT22;10189;49.546;7.906;2023-04-01T05:40:16;7.00;99.90
20057;DHT22;10189;49.546;7.906;2023-04-01T05:42:42;6.90;99.90
20057;DHT22;10189;49.546;7.906;2023-04-01T05:45:08;7.00;99.90
20057;DHT22;10189;49.546;7.906;2023-04-01T05:47:58;6.90;99.90
20057;DHT22;10189;49.546;7.906;2023-04-01T05:50:27;6.90;99.90
20057;DHT22;10189;49.546;7.906;2023-04-01T05:52:54;7.00;99.90
20057;DHT22;10189;49.546;7.906;2023-04-01T05:55:21;7.00;99.90
20057;DHT22;10189;49.546;7.906;2023-04-01T05:57:49;7.00;99.90
20057;DHT22;10189;49.546;7.906;2023-04-01T06:00:15;7.00;99.90
20057;DHT22;10189;49.546;7.906;2023-04-01T06:02:42;7.00;99.90
20057;DHT22;10189;49.546;7.906;2023-04-01T06:05:23;7.00;99.90
20057;DHT22;10189;49.546;7.906;2023-04-01T06:07:59;7.10;99.90
20057;DHT22;10189;49.546;7.906;2023-04-01T06:13:42;7.10;99.90
20057;DHT22;10189;49.546;7.906;2023-04-01T06:16:35;7.10;99.90
20057;DHT22;10189;49.546;7.906;2023-04-01T06:19:32;7.10;99.90
20057;DHT22;10189;49.546;7.906;2023-04-01T06:31:33;7.10;99.90
20057;DHT22;10189;49.546;7.906;2023-04-01T06:39:19;7.20;99.90
20057;DHT22;10189;49.546;7.906;2023-04-01T06:45:53;7.10;99.90
20057;DHT22;10189;49.546;7.906;2023-04-01T06:52:12;7.10;99.90
20057;DHT22;10189;49.546;7.906;2023-04-01T06:55:26;7.20;99.90
20057;DHT22;10189;49.546;7.906;2023-04-01T07:00:58;7.30;99.90
20057;DHT22;10189;49.546;7.906;2023-04-01T07:03:34;7.50;99.90
20057;DHT22;10189;49.546;7.906;2023-04-01T07:06:10;7.60;99.90
20057;DHT22;10189;49.546;7.906;2023-04-01T07:08:50;7.80;99.90
20057;DHT22;10189;49.546;7.906;2023-04-01T07:11:30;7.90;99.90
20057;DHT22;10189;49.546;7.906;2023-04-01T07:14:36;8.00;99.90
20057;DHT22;10189;49.546;7.906;2023-04-01T07:17:20;8.10;99.90
20057;DHT22;10189;49.546;7.906;2023-04-01T07:22:36;8.40;99.90
20057;DHT22;10189;49.546;7.906;2023-04-01T07:25:29;8.40;99.10
20057;DHT22;10189;49.546;7.906;2023-04-01T07:28:32;8.40;99.90
20057;DHT22;10189;49.546;7.906;2023-04-01T07:34:26;8.60;99.90
20057;DHT22;10189;49.546;7.906;2023-04-01T07:37:18;8.50;99.90
20057;DHT22;10189;49.546;7.906;2023-04-01T07:49:07;8.20;99.90
20057;DHT22;10189;49.546;7.906;2023-04-01T07:57:55;8.20;99.90
20057;DHT22;10189;49.546;7.906;2023-04-01T08:00:42;8.20;99.90
20057;DHT22;10189;49.546;7.906;2023-04-01T08:03:51;8.20;99.90
20057;DHT22;10189;49.546;7.906;2023-04-01T08:06:32;8.20;99.90
20057;DHT22;10189;49.546;7.906;2023-04-01T08:09:27;8.30;99.90
20057;DHT22;10189;49.546;7.906;2023-04-01T08:13:03;8.20;99.90
20057;DHT22;10189;49.546;7.906;2023-04-01T08:22:47;8.40;99.90
20057;DHT22;10189;49.546;7.906;2023-04-01T08:25:26;8.50;99.90
20057;DHT22;10189;49.546;7.906;2023-04-01T08:28:03;8.60;99.90
20057;DHT22;10189;49.546;7.906;2023-04-01T08:30:47;8.80;99.90
20057;DHT22;10189;49.546;7.906;2023-04-01T08:33:32;8.90;99.90
20057;DHT22;10189;49.546;7.906;2023-04-01T08:38:51;8.70;99.90
20057;DHT22;10189;49.546;7.906;2023-04-01T08:51:08;8.80;99.90
20057;DHT22;10189;49.546;7.906;2023-04-01T08:56:20;8.70;99.90
20057;DHT22;10189;49.546;7.906;2023-04-01T09:11:55;8.80;99.90
20057;DHT22;10189;49.546;7.906;2023-04-01T09:17:43;9.00;99.90
20057;DHT22;10189;49.546;7.906;2023-04-01T09:41:11;9.10;99.90
20057;DHT22;10189;49.546;7.906;2023-04-01T09:53:10;9.00;99.90
20057;DHT22;10189;49.546;7.906;2023-04-01T10:14:37;9.10;99.90
20057;DHT22;10189;49.546;7.906;2023-04-01T10:30:13;9.10;99.90
20057;DHT22;10189;49.546;7.906;2023-04-01T10:45:31;9.00;99.90
20057;DHT22;10189;49.546;7.906;2023-04-01T10:51:59;9.20;99.90
20057;DHT22;10189;49.546;7.906;2023-04-01T11:12:11;9.40;99.90
20057;DHT22;10189;49.546;7.906;2023-04-01T11:26:15;9.30;99.90
20057;DHT22;10189;49.546;7.906;2023-04-01T11:32:42;9.40;99.90
20057;DHT22;10189;49.546;7.906;2023-04-01T11:48:44;9.40;99.70
20057;DHT22;10189;49.546;7.906;2023-04-01T11:51:42;9.50;99.80
20057;DHT22;10189;49.546;7.906;2023-04-01T11:54:28;9.50;98.70
20057;DHT22;10189;49.546;7.906;2023-04-01T12:12:59;10.00;96.80
20057;DHT22;10189;49.546;7.906;2023-04-01T12:16:16;10.20;94.90
20057;DHT22;10189;49.546;7.906;2023-04-01T12:31:03;10.20;95.60
20057;DHT22;10189;49.546;7.906;2023-04-01T12:45:30;10.20;95.30
20057;DHT22;10189;49.546;7.906;2023-04-01T12:48:26;9.90;97.70
20057;DHT22;10189;49.546;7.906;2023-04-01T12:51:25;9.80;99.40
20057;DHT22;10189;49.546;7.906;2023-04-01T12:57:06;9.60;99.40
20057;DHT22;10189;49.546;7.906;2023-04-01T13:14:56;10.00;96.30
20057;DHT22;10189;49.546;7.906;2023-04-01T13:17:43;10.00;95.30
20057;DHT22;10189;49.546;7.906;2023-04-01T13:26:06;10.40;94.60
20057;DHT22;10189;49.546;7.906;2023-04-01T13:31:55;10.20;94.60
20057;DHT22;10189;49.546;7.906;2023-04-01T13:34:51;10.20;96.20
20057;DHT22;10189;49.546;7.906;2023-04-01T13:43:26;10.00;96.60
20057;DHT22;10189;49.546;7.906;2023-04-01T13:46:20;10.00;95.90
20057;DHT22;10189;49.546;7.906;2023-04-01T14:09:13;9.30;98.30
20057;DHT22;10189;49.546;7.906;2023-04-01T14:15:14;9.30;99.50
20057;DHT22;10189;49.546;7.906;2023-04-01T14:21:27;9.60;95.70
20057;DHT22;10189;49.546;7.906;2023-04-01T14:41:42;9.60;92.70
20057;DHT22;10189;49.546;7.906;2023-04-01T14:47:43;9.40;92.20
20057;DHT22;10189;49.546;7.906;2023-04-01T14:50:18;9.40;92.40
20057;DHT22;10189;49.546;7.906;2023-04-01T14:53:26;9.70;92.50
20057;DHT22;10189;49.546;7.906;2023-04-01T14:55:58;9.70;91.50
20057;DHT22;10189;49.546;7.906;2023-04-01T14:58:45;9.80;90.20
20057;DHT22;10189;49.546;7.906;2023-04-01T15:24:21;9.50;90.30
20057;DHT22;10189;49.546;7.906;2023-04-01T15:30:23;9.60;89.60
20057;DHT22;10189;49.546;7.906;2023-04-01T15:36:10;9.40;91.50
20057;DHT22;10189;49.546;7.906;2023-04-01T15:45:08;9.40;90.80
20057;DHT22;10189;49.546;7.906;2023-04-01T15:47:41;9.50;90.60
20057;DHT22;10189;49.546;7.906;2023-04-01T16:02:07;9.90;90.10
20057;DHT22;10189;49.546;7.906;2023-04-01T16:05:20;9.90;90.20
20057;DHT22;10189;49.546;7.906;2023-04-01T16:16:12;9.70;90.20
20057;DHT22;10189;49.546;7.906;2023-04-01T16:21:58;9.40;90.60
20057;DHT22;10189;49.546;7.906;2023-04-01T16:24:50;9.20;91.10
20057;DHT22;10189;49.546;7.906;2023-04-01T16:34:36;9.00;91.90
20057;DHT22;10189;49.546;7.906;2023-04-01T16:37:19;9.00;91.40
20057;DHT22;10189;49.546;7.906;2023-04-01T16:46:05;8.80;93.10
20057;DHT22;10189;49.546;7.906;2023-04-01T16:51:45;8.70;92.20
20057;DHT22;10189;49.546;7.906;2023-04-01T16:54:51;8.70;91.40
20057;DHT22;10189;49.546;7.906;2023-04-01T16:57:31;8.60;91.80
20057;DHT22;10189;49.546;7.906;2023-04-01T17:00:38;8.60;92.20
20057;DHT22;10189;49.546;7.906;2023-04-01T17:06:03;8.50;91.90
20057;DHT22;10189;49.546;7.906;2023-04-01T17:11:40;8.50;92.70
20057;DHT22;10189;49.546;7.906;2023-04-01T17:14:41;8.50;92.50
20057;DHT22;10189;49.546;7.906;2023-04-01T17:17:31;8.50;93.10
20057;DHT22;10189;49.546;7.906;2023-04-01T17:23:11;8.40;92.80
20057;DHT22;10189;49.546;7.906;2023-04-01T17:25:52;8.40;93.10
20057;DHT22;10189;49.546;7.906;2023-04-01T17:31:37;8.40;92.90
20057;DHT22;10189;49.546;7.906;2023-04-01T17:43:32;8.30;93.20
20057;DHT22;10189;49.546;7.906;2023-04-01T17:54:40;8.30;92.70
20057;DHT22;10189;49.546;7.906;2023-04-01T18:00:57;8.20;93.10
20057;DHT22;10189;49.546;7.906;2023-04-01T18:09:51;8.10;94.40
20057;DHT22;10189;49.546;7.906;2023-04-01T18:12:59;8.00;94.20
20057;DHT22;10189;49.546;7.906;2023-04-01T18:21:50;8.00;94.10
20057;DHT22;10189;49.546;7.906;2023-04-01T18:24:32;8.00;94.80
20057;DHT22;10189;49.546;7.906;2023-04-01T18:27:30;8.00;94.60
20057;DHT22;10189;49.546;7.906;2023-04-01T18:32:58;7.80;95.60
20057;DHT22;10189;49.546;7.906;2023-04-01T18:35:52;7.80;95.60
20057;DHT22;10189;49.546;7.906;2023-04-01T18:38:30;7.80;96.30
20057;DHT22;10189;49.546;7.906;2023-04-01T18:41:21;7.80;97.30
20057;DHT22;10189;49.546;7.906;2023-04-01T18:44:10;7.80;97.10
20057;DHT22;10189;49.546;7.906;2023-04-01T18:50:33;7.80;97.50
20057;DHT22;10189;49.546;7.906;2023-04-01T18:53:31;7.80;97.60
20057;DHT22;10189;49.546;7.906;2023-04-01T18:56:14;7.80;97.80
20057;DHT22;10189;49.546;7.906;2023-04-01T19:10:46;7.80;98.00
20057;DHT22;10189;49.546;7.906;2023-04-01T19:13:52;7.80;97.90
20057;DHT22;10189;49.546;7.906;2023-04-01T19:16:46;7.80;98.40
20057;DHT22;10189;49.546;7.906;2023-04-01T19:20:17;7.80;98.20
20057;DHT22;10189;49.546;7.906;2023-04-01T19:26:00;7.80;98.10
20057;DHT22;10189;49.546;7.906;2023-04-01T19:36:53;7.80;98.70
20057;DHT22;10189;49.546;7.906;2023-04-01T19:47:54;7.70;99.50
20057;DHT22;10189;49.546;7.906;2023-04-01T19:59:50;7.50;99.90
20057;DHT22;10189;49.546;7.906;2023-04-01T20:03:03;7.50;99.90
20057;DHT22;10189;49.546;7.906;2023-04-01T20:18:34;7.40;99.90
20057;DHT22;10189;49.546;7.906;2023-04-01T20:21:24;7.40;99.90
20057;DHT22;10189;49.546;7.906;2023-04-01T20:26:48;7.50;99.90
20057;DHT22;10189;49.546;7.906;2023-04-01T20:32:16;7.60;99.90
20057;DHT22;10189;49.546;7.906;2023-04-01T20:35:31;7.50;99.90
20057;DHT22;10189;49.546;7.906;2023-04-01T20:38:24;7.60;99.90
20057;DHT22;10189;49.546;7.906;2023-04-01T20:44:14;7.60;99.90
20057;DHT22;10189;49.546;7.906;2023-04-01T20:47:12;7.60;99.90
20057;DHT22;10189;49.546;7.906;2023-04-01T20:56:47;7.50;99.90
20057;DHT22;10189;49.546;7.906;2023-04-01T21:06:15;7.50;99.90
20057;DHT22;10189;49.546;7.906;2023-04-01T21:30:01;7.60;99.90
20057;DHT22;10189;49.546;7.906;2023-04-01T22:04:32;7.40;99.90
20057;DHT22;10189;49.546;7.906;2023-04-01T22:09:55;7.40;99.90
20057;DHT22;10189;49.546;7.906;2023-04-01T22:15:20;7.30;99.90
20057;DHT22;10189;49.546;7.906;2023-04-01T22:18:16;7.30;99.90
20057;DHT22;10189;49.546;7.906;2023-04-01T22:20:59;7.30;99.90
20057;DHT22;10189;49.546;7.906;2023-04-01T22:23:47;7.30;99.90
20057;DHT22;10189;49.546;7.906;2023-04-01T22:29:15;7.30;99.90
20057;DHT22;10189;49.546;7.906;2023-04-01T22:31:57;7.30;99.90
20057;DHT22;10189;49.546;7.906;2023-04-01T22:34:40;7.30;99.90
20057;DHT22;10189;49.546;7.906;2023-04-01T22:37:23;7.20;99.90
20057;DHT22;10189;49.546;7.906;2023-04-01T22:42:47;7.20;99.90
20057;DHT22;10189;49.546;7.906;2023-04-01T22:51:07;7.20;99.90
20057;DHT22;10189;49.546;7.906;2023-04-01T22:56:32;7.10;99.90
20057;DHT22;10189;49.546;7.906;2023-04-01T23:02:13;7.10;99.90
20057;DHT22;10189;49.546;7.906;2023-04-01T23:04:56;7.10;99.90
20057;DHT22;10189;49.546;7.906;2023-04-01T23:10:49;7.10;99.90
20057;DHT22;10189;49.546;7.906;2023-04-01T23:13:26;7.20;99.90
20057;DHT22;10189;49.546;7.906;2023-04-01T23:15:56;7.10;99.90
20057;DHT22;10189;49.546;7.906;2023-04-01T23:18:27;7.10;99.90
20057;DHT22;10189;49.546;7.906;2023-04-01T23:21:15;7.10;99.90
20057;DHT22;10189;49.546;7.906;2023-04-01T23:29:36;7.00;99.90
20057;DHT22;10189;49.546;7.906;2023-04-01T23:32:19;7.00;99.90
20057;DHT22;10189;49.546;7.906;2023-04-01T23:34:53;7.00;99.90
20057;DHT22;10189;49.546;7.906;2023-04-01T23:37:23;7.00;99.90
20057;DHT22;10189;49.546;7.906;2023-04-01T23:39:59;6.90;99.90
20057;DHT22;10189;49.546;7.906;2023-04-01T23:42:29;6.90;99.90
20057;DHT22;10189;49.546;7.906;2023-04-01T23:45:10;6.90;99.90
20057;DHT22;10189;49.546;7.906;2023-04-01T23:47:42;6.90;99.90
20057;DHT22;10189;49.546;7.906;2023-04-01T23:52:52;7.00;99.90
20057;DHT22;10189;49.546;7.906;2023-04-01T23:55:42;7.00;99.90
20057;DHT22;10189;49.546;7.906;2023-04-01T23:58:24;7.00;99.90
